createdAt,value
2023-01-05T00:01:26.135Z,27.17
2023-01-05T00:04:10.380Z,23.17
2023-01-05T00:06:55.968Z,23.60
2023-01-05T00:09:40.000Z,22.47
2023-01-05T00:12:41.424Z,22.83
2023-01-05T00:15:43.095Z,22.10
2023-01-05T00:18:44.542Z,26.37
2023-01-05T00:21:46.189Z,20.90
2023-01-05T00:24:32.069Z,26.30
2023-01-05T00:27:16.072Z,22.50
2023-01-05T00:30:00.405Z,20.63
2023-01-05T00:32:45.117Z,20.83
2023-01-05T00:35:31.154Z,21.97
2023-01-05T00:38:15.191Z,23.53
2023-01-05T00:41:00.655Z,21.60
2023-01-05T00:43:44.652Z,21.47
2023-01-05T00:46:28.708Z,20.77
2023-01-05T00:49:12.785Z,23.23
2023-01-05T00:51:56.917Z,22.80
2023-01-05T00:54:40.970Z,22.67
2023-01-05T00:57:26.596Z,20.93
2023-01-05T01:00:16.164Z,23.17
2023-01-05T01:03:00.378Z,18.90
2023-01-05T01:05:45.645Z,19.23
2023-01-05T01:08:29.538Z,20.87
2023-01-05T01:11:13.604Z,19.13
2023-01-05T01:13:59.157Z,20.43
2023-01-05T01:16:43.971Z,24.30
2023-01-05T01:19:28.894Z,19.13
2023-01-05T01:22:12.875Z,20.80
2023-01-05T01:24:56.850Z,22.27
2023-01-05T01:27:40.870Z,20.67
2023-01-05T01:30:26.382Z,22.27
2023-01-05T01:33:11.058Z,21.27
2023-01-05T01:35:55.136Z,27.90
2023-01-05T01:38:39.467Z,19.90
2023-01-05T01:41:24.116Z,22.73
2023-01-05T01:44:41.060Z,22.50
2023-01-05T01:47:47.184Z,23.50
2023-01-05T01:50:35.162Z,30.20
2023-01-05T01:53:24.437Z,29.33
2023-01-05T01:56:12.847Z,23.50
2023-01-05T01:58:56.863Z,23.83
2023-01-05T02:01:41.583Z,27.93
2023-01-05T02:04:28.258Z,24.37
2023-01-05T02:07:16.409Z,29.67
2023-01-05T02:10:00.452Z,25.93
2023-01-05T02:13:00.045Z,28.03
2023-01-05T02:15:54.357Z,24.10
2023-01-05T02:19:01.370Z,25.97
2023-01-05T02:21:58.805Z,25.60
2023-01-05T02:25:08.138Z,27.47
2023-01-05T02:28:00.811Z,24.73
2023-01-05T02:31:01.716Z,25.53
2023-01-05T02:34:07.510Z,22.13
2023-01-05T02:36:57.452Z,23.93
2023-01-05T02:39:47.946Z,25.30
2023-01-05T02:42:36.013Z,25.83
2023-01-05T02:45:20.111Z,22.33
2023-01-05T02:48:06.312Z,25.17
2023-01-05T02:50:57.612Z,22.80
2023-01-05T02:53:46.161Z,22.87
2023-01-05T02:56:37.200Z,20.53
2023-01-05T02:59:27.448Z,22.17
2023-01-05T03:02:15.827Z,27.43
2023-01-05T03:05:05.978Z,25.43
2023-01-05T03:07:52.525Z,27.50
2023-01-05T03:11:01.386Z,30.17
2023-01-05T03:13:49.870Z,26.73
2023-01-05T03:16:38.677Z,23.87
2023-01-05T03:19:39.850Z,22.57
2023-01-05T03:22:48.635Z,28.63
2023-01-05T03:25:53.255Z,127.50
2023-01-05T03:28:59.437Z,66.60
2023-01-05T03:32:09.792Z,35.03
2023-01-05T03:35:18.027Z,33.33
2023-01-05T03:38:17.663Z,29.60
2023-01-05T03:41:09.127Z,28.00
2023-01-05T03:43:55.053Z,29.43
2023-01-05T03:46:42.764Z,25.93
2023-01-05T03:49:26.922Z,25.70
2023-01-05T03:52:10.688Z,25.17
2023-01-05T03:54:59.153Z,25.83
2023-01-05T03:57:43.504Z,25.90
2023-01-05T04:00:27.788Z,28.20
2023-01-05T04:03:19.058Z,28.60
2023-01-05T04:06:03.225Z,29.03
2023-01-05T04:08:49.220Z,26.07
2023-01-05T04:11:34.494Z,38.67
2023-01-05T04:14:22.091Z,32.03
2023-01-05T04:17:05.936Z,33.67
2023-01-05T04:19:49.895Z,40.53
2023-01-05T04:22:35.050Z,37.03
2023-01-05T04:25:19.135Z,38.03
2023-01-05T04:28:05.468Z,31.40
2023-01-05T04:30:52.146Z,35.70
2023-01-05T04:33:36.506Z,42.73
2023-01-05T04:36:20.618Z,34.73
2023-01-05T04:39:05.322Z,42.73
2023-01-05T04:41:51.432Z,36.60
2023-01-05T04:44:38.659Z,43.50
2023-01-05T04:47:23.768Z,43.00
2023-01-05T04:50:09.914Z,42.87
2023-01-05T04:52:54.937Z,45.60
2023-01-05T04:55:39.583Z,41.53
2023-01-05T04:58:23.730Z,41.77
2023-01-05T05:01:12.217Z,43.50
2023-01-05T05:03:57.794Z,40.30
2023-01-05T05:06:42.733Z,52.77
2023-01-05T05:09:26.606Z,51.07
2023-01-05T05:12:11.322Z,40.67
2023-01-05T05:14:56.203Z,46.13
2023-01-05T05:17:42.432Z,45.57
2023-01-05T05:20:29.329Z,44.73
2023-01-05T05:23:13.200Z,42.73
2023-01-05T05:25:57.582Z,39.10
2023-01-05T05:28:42.085Z,39.97
2023-01-05T05:31:25.905Z,43.87
2023-01-05T05:34:11.077Z,43.27
2023-01-05T05:36:54.865Z,43.53
2023-01-05T05:39:38.757Z,39.23
2023-01-05T05:42:22.616Z,49.27
2023-01-05T05:45:07.645Z,43.27
2023-01-05T05:47:51.494Z,50.63
2023-01-05T05:50:36.792Z,45.80
2023-01-05T05:53:22.790Z,44.03
2023-01-05T05:56:07.135Z,45.53
2023-01-05T05:58:53.625Z,41.00
2023-01-05T06:01:41.675Z,43.30
2023-01-05T06:04:25.774Z,39.57
2023-01-05T06:07:11.076Z,40.47
2023-01-05T06:09:54.903Z,42.93
2023-01-05T06:12:38.831Z,44.60
2023-01-05T06:15:23.039Z,46.37
2023-01-05T06:18:06.974Z,52.83
2023-01-05T06:20:53.947Z,48.63
2023-01-05T06:23:41.537Z,47.80
2023-01-05T06:26:25.351Z,46.77
2023-01-05T06:29:09.141Z,45.03
2023-01-05T06:31:52.987Z,46.13
2023-01-05T06:34:36.830Z,51.40
2023-01-05T06:37:20.732Z,51.40
2023-01-05T06:40:06.907Z,47.93
2023-01-05T06:43:49.257Z,50.53
2023-01-05T06:47:31.793Z,45.50
2023-01-05T06:51:14.277Z,50.47
2023-01-05T06:54:56.508Z,49.13
2023-01-05T06:58:40.282Z,51.93
2023-01-05T07:02:22.645Z,46.67
2023-01-05T07:06:10.003Z,51.13
2023-01-05T07:09:55.226Z,51.10
2023-01-05T07:13:39.093Z,51.57
2023-01-05T07:17:21.385Z,40.37
2023-01-05T07:21:03.949Z,46.97
2023-01-05T07:24:46.190Z,39.33
2023-01-05T07:28:28.461Z,39.60
2023-01-05T07:32:12.214Z,41.63
2023-01-05T07:35:54.519Z,38.67
2023-01-05T07:39:36.864Z,40.07
2023-01-05T07:43:19.299Z,47.67
2023-01-05T07:47:03.444Z,44.40
2023-01-05T07:50:45.680Z,49.77
2023-01-05T07:54:28.912Z,50.67
2023-01-05T07:58:11.236Z,45.13
2023-01-05T08:01:57.500Z,50.20
2023-01-05T08:05:41.321Z,54.47
2023-01-05T08:09:40.978Z,58.23
2023-01-05T08:13:55.199Z,56.60
2023-01-05T08:17:37.523Z,37.80
2023-01-05T08:21:21.416Z,32.50
2023-01-05T08:25:03.898Z,33.87
2023-01-05T08:28:46.278Z,29.10
2023-01-05T08:32:29.404Z,36.97
2023-01-05T08:36:14.237Z,34.80
2023-01-05T08:39:56.985Z,33.70
2023-01-05T08:43:39.336Z,33.10
2023-01-05T08:47:27.868Z,33.17
2023-01-05T08:51:11.314Z,33.97
2023-01-05T08:54:55.231Z,34.17
2023-01-05T08:58:37.591Z,32.30
2023-01-05T09:02:25.528Z,33.83
2023-01-05T09:06:11.942Z,36.30
2023-01-05T09:09:55.742Z,37.03
2023-01-05T09:13:38.879Z,36.57
2023-01-05T09:17:22.428Z,38.10
2023-01-05T09:21:06.205Z,71.97
2023-01-05T09:24:49.981Z,122.03
2023-01-05T09:28:32.637Z,44.20
2023-01-05T09:32:16.068Z,42.87
2023-01-05T09:35:58.621Z,39.60
2023-01-05T09:39:41.188Z,32.93
2023-01-05T09:43:28.709Z,40.63
2023-01-05T09:47:16.265Z,37.27
2023-01-05T09:50:59.074Z,34.17
2023-01-05T09:54:42.124Z,38.63
2023-01-05T09:58:30.240Z,37.87
2023-01-05T10:02:20.354Z,40.10
2023-01-05T10:06:03.797Z,41.03
2023-01-05T10:09:49.430Z,33.30
2023-01-05T10:13:40.108Z,30.20
2023-01-05T10:21:33.458Z,28.47
2023-01-05T10:25:25.015Z,29.50
2023-01-05T10:29:22.272Z,25.03
2023-01-05T10:33:39.608Z,23.30
2023-01-05T10:37:49.326Z,23.67
2023-01-05T10:41:52.511Z,25.63
2023-01-05T10:46:11.610Z,27.37
2023-01-05T10:49:46.575Z,23.43
2023-01-05T10:53:30.361Z,24.57
2023-01-05T10:57:36.608Z,26.83
2023-01-05T11:01:25.566Z,24.60
2023-01-05T11:05:21.124Z,27.63
2023-01-05T11:09:08.608Z,25.13
2023-01-05T11:12:57.010Z,25.67
2023-01-05T11:16:48.132Z,27.17
2023-01-05T11:20:31.964Z,26.23
2023-01-05T11:24:34.068Z,124.03
2023-01-05T11:28:23.332Z,29.90
2023-01-05T11:32:10.980Z,23.77
2023-01-05T11:35:53.362Z,32.23
2023-01-05T11:39:36.857Z,23.90
2023-01-05T11:43:21.423Z,28.33
2023-01-05T11:47:07.411Z,38.87
2023-01-05T11:50:51.638Z,29.17
2023-01-05T11:54:39.366Z,31.30
2023-01-05T11:58:24.214Z,36.03
2023-01-05T12:02:50.894Z,35.17
2023-01-05T12:06:54.371Z,19.90
2023-01-05T12:10:55.698Z,22.07
2023-01-05T12:14:59.178Z,70.03
2023-01-05T12:18:58.999Z,24.83
2023-01-05T12:22:56.582Z,48.73
2023-01-05T12:26:53.528Z,46.97
2023-01-05T12:35:17.827Z,48.63
2023-01-05T12:39:13.254Z,32.17
2023-01-05T12:43:02.116Z,26.50
2023-01-05T12:47:05.679Z,27.20
2023-01-05T12:50:55.477Z,27.40
2023-01-05T12:54:44.920Z,29.80
2023-01-05T12:58:33.718Z,81.83
2023-01-05T13:02:23.922Z,37.10
2023-01-05T13:06:17.698Z,31.73
2023-01-05T13:10:04.645Z,34.13
2023-01-05T13:13:49.988Z,24.13
2023-01-05T13:17:36.229Z,23.30
2023-01-05T13:21:27.874Z,25.20
2023-01-05T13:25:18.234Z,29.73
2023-01-05T13:29:04.527Z,26.73
2023-01-05T13:33:00.378Z,17.50
2023-01-05T13:36:59.426Z,19.00
2023-01-05T13:40:57.541Z,19.73
2023-01-05T13:45:14.320Z,26.63
2023-01-05T13:49:24.320Z,29.93
2023-01-05T13:53:18.654Z,29.00
2023-01-05T13:57:08.979Z,23.73
2023-01-05T14:00:54.028Z,20.53
2023-01-05T14:04:38.297Z,21.43
2023-01-05T14:08:24.614Z,20.57
2023-01-05T14:12:41.531Z,20.10
2023-01-05T14:17:02.677Z,18.57
2023-01-05T14:20:53.759Z,24.43
2023-01-05T14:24:58.649Z,23.93
2023-01-05T14:29:09.176Z,28.33
2023-01-05T14:32:54.544Z,23.73
2023-01-05T14:36:38.949Z,26.50
2023-01-05T14:40:30.246Z,25.97
2023-01-05T14:44:32.312Z,26.07
2023-01-05T14:48:29.504Z,33.93
2023-01-05T14:52:22.286Z,47.80
2023-01-05T14:56:18.131Z,39.07
2023-01-05T15:00:14.999Z,34.73
2023-01-05T15:04:05.250Z,49.43
2023-01-05T15:12:16.214Z,35.53
2023-01-05T15:16:20.937Z,31.23
2023-01-05T15:20:27.035Z,35.90
2023-01-05T15:24:38.752Z,70.97
2023-01-05T15:28:55.026Z,96.77
2023-01-05T15:32:42.677Z,62.00
2023-01-05T15:36:30.506Z,47.67
2023-01-05T15:40:29.615Z,41.93
2023-01-05T15:44:16.251Z,46.40
2023-01-05T15:48:00.494Z,56.10
2023-01-05T15:51:50.891Z,58.33
2023-01-05T15:55:33.395Z,45.13
2023-01-05T15:59:23.147Z,36.83
2023-01-05T16:03:22.517Z,47.13
2023-01-05T16:07:07.096Z,68.20
2023-01-05T16:10:51.813Z,67.80
2023-01-05T16:14:40.022Z,55.63
2023-01-05T16:18:24.680Z,56.03
2023-01-05T16:22:13.762Z,40.73
2023-01-05T16:25:59.274Z,29.67
2023-01-05T16:29:45.589Z,25.93
2023-01-05T16:33:35.005Z,35.93
2023-01-05T16:37:19.365Z,76.70
2023-01-05T16:41:28.781Z,29.57
2023-01-05T16:45:29.390Z,23.03
2023-01-05T16:49:38.933Z,18.10
2023-01-05T16:53:26.151Z,17.93
2023-01-05T16:57:32.100Z,25.57
2023-01-05T17:01:36.980Z,20.57
2023-01-05T17:05:20.545Z,25.47
2023-01-05T17:09:08.663Z,32.93
2023-01-05T17:12:57.079Z,17.87
2023-01-05T17:16:44.172Z,16.57
2023-01-05T17:20:28.866Z,17.43
2023-01-05T17:24:15.112Z,15.23
2023-01-05T17:27:57.444Z,22.23
2023-01-05T17:31:39.818Z,15.30
2023-01-05T17:35:23.888Z,29.67
2023-01-05T17:39:06.175Z,20.00
2023-01-05T17:42:48.690Z,46.37
2023-01-05T17:46:33.778Z,35.90
2023-01-05T17:50:19.458Z,14.13
2023-01-05T17:54:02.926Z,10.13
2023-01-05T17:57:45.209Z,14.37
2023-01-05T18:01:28.838Z,25.83
2023-01-05T18:05:11.634Z,24.03
2023-01-05T18:08:55.343Z,17.60
2023-01-05T18:12:37.671Z,22.60
2023-01-05T18:16:20.056Z,12.80
2023-01-05T18:20:02.507Z,19.83
2023-01-05T18:23:47.237Z,14.87
2023-01-05T18:27:29.621Z,13.97
2023-01-05T18:31:13.124Z,14.43
2023-01-05T18:34:55.384Z,21.30
2023-01-05T18:38:38.293Z,17.40
2023-01-05T18:42:23.917Z,10.50
2023-01-05T18:46:07.401Z,13.90
2023-01-05T18:49:53.541Z,16.00
2023-01-05T18:53:37.923Z,12.10
2023-01-05T18:57:21.997Z,11.27
2023-01-05T19:01:08.894Z,19.30
2023-01-05T19:04:52.758Z,16.97
2023-01-05T19:08:35.159Z,33.80
2023-01-05T19:12:18.282Z,18.07
2023-01-05T19:15:21.071Z,23.87
2023-01-05T19:18:05.406Z,12.77
2023-01-05T19:20:57.916Z,13.27
2023-01-05T19:23:41.905Z,13.67
2023-01-05T19:26:28.235Z,16.27
2023-01-05T19:29:13.420Z,16.07
2023-01-05T19:31:58.717Z,12.60
2023-01-05T19:34:43.111Z,14.70
2023-01-05T19:37:26.894Z,9.50
2023-01-05T19:40:12.130Z,11.27
2023-01-05T19:42:57.264Z,14.50
2023-01-05T19:45:41.032Z,38.60
2023-01-05T19:48:26.092Z,42.70
2023-01-05T19:51:12.266Z,15.60
2023-01-05T19:53:57.842Z,19.47
2023-01-05T19:56:42.554Z,22.50
2023-01-05T19:59:33.313Z,29.33
2023-01-05T20:02:17.420Z,24.13
2023-01-05T20:05:02.713Z,18.97
2023-01-05T20:07:50.090Z,21.23
2023-01-05T20:11:06.459Z,22.57
2023-01-05T20:13:53.310Z,19.73
2023-01-05T20:16:37.149Z,17.00
2023-01-05T20:19:21.926Z,21.20
2023-01-05T20:22:11.978Z,22.83
2023-01-05T20:24:55.823Z,14.53
2023-01-05T20:27:39.808Z,15.77
2023-01-05T20:30:23.708Z,11.73
2023-01-05T20:33:07.565Z,10.07
2023-01-05T20:35:51.363Z,10.67
2023-01-05T20:38:36.737Z,10.90
2023-01-05T20:41:23.461Z,12.90
2023-01-05T20:44:08.969Z,15.53
2023-01-05T20:46:55.347Z,15.77
2023-01-05T20:49:40.695Z,8.63
2023-01-05T20:52:24.609Z,10.00
2023-01-05T20:55:09.862Z,9.47
2023-01-05T20:57:53.679Z,15.80
2023-01-05T21:01:10.866Z,18.17
2023-01-05T21:03:41.817Z,13.87
2023-01-05T21:06:25.686Z,11.60
2023-01-05T21:09:10.283Z,12.40
2023-01-05T21:11:55.867Z,11.53
2023-01-05T21:14:39.682Z,12.70
2023-01-05T21:17:23.422Z,11.80
2023-01-05T21:20:09.587Z,14.33
2023-01-05T21:22:53.815Z,15.53
2023-01-05T21:26:06.611Z,21.30
2023-01-05T21:28:48.920Z,23.23
2023-01-05T21:31:33.547Z,19.10
2023-01-05T21:34:17.343Z,17.60
2023-01-05T21:37:01.154Z,21.93
2023-01-05T21:39:45.639Z,22.13
2023-01-05T21:42:42.686Z,20.13
2023-01-05T21:45:27.979Z,18.63
2023-01-05T21:48:11.780Z,12.23
2023-01-05T21:51:17.464Z,9.27
2023-01-05T21:54:18.173Z,8.87
2023-01-05T21:57:02.707Z,9.57
2023-01-05T21:59:46.418Z,8.93
2023-01-05T22:02:31.508Z,6.17
2023-01-05T22:05:15.589Z,6.43
2023-01-05T22:07:59.349Z,6.63
2023-01-05T22:10:43.020Z,8.10
2023-01-05T22:13:26.920Z,5.23
2023-01-05T22:16:11.126Z,5.43
2023-01-05T22:18:56.632Z,7.70
2023-01-05T22:21:40.553Z,5.40
2023-01-05T22:24:24.324Z,5.07
2023-01-05T22:27:08.467Z,5.33
2023-01-05T22:29:52.163Z,4.70
2023-01-05T22:32:36.232Z,8.10
2023-01-05T22:35:21.319Z,6.87
2023-01-05T22:38:05.129Z,5.77
2023-01-05T22:40:56.645Z,6.23
2023-01-05T22:43:42.154Z,6.10
2023-01-05T22:46:28.148Z,5.03
2023-01-05T22:49:16.482Z,5.63
2023-01-05T22:52:01.938Z,6.03
2023-01-05T22:54:45.783Z,5.90
2023-01-05T22:57:29.635Z,4.90
2023-01-05T23:00:14.958Z,4.33
2023-01-05T23:03:00.351Z,5.77
2023-01-05T23:05:44.212Z,5.53
2023-01-05T23:08:29.848Z,5.13
2023-01-05T23:11:15.723Z,4.80
2023-01-05T23:14:01.093Z,5.07
2023-01-05T23:16:44.980Z,5.53
2023-01-05T23:19:28.763Z,5.23
2023-01-05T23:22:12.483Z,5.73
2023-01-05T23:24:57.563Z,5.40
2023-01-05T23:27:41.422Z,5.20
2023-01-05T23:30:25.185Z,5.33
2023-01-05T23:33:09.118Z,6.53
2023-01-05T23:35:54.004Z,7.27
2023-01-05T23:38:38.517Z,6.53
2023-01-05T23:41:23.689Z,6.43
2023-01-05T23:44:08.165Z,4.87
2023-01-05T23:46:52.020Z,5.70
2023-01-05T23:49:35.792Z,5.83
2023-01-05T23:52:19.513Z,6.67
2023-01-05T23:55:03.621Z,5.30
2023-01-05T23:57:49.064Z,5.33
